Time;durP1;ratioP1;P1;durP2;ratioP2;P2;SDS_P1;SDS_P2;PMS_P1;PMS_P2;Temp;Humidity;BMP_temperature;BMP_pressure;BME280_temperature;BME280_humidity;BME280_pressure;Samples;Min_cycle;Max_cycle;Signal;HPM_P1;HPM_P2
2022/06/23 00:01:50;;;;;;;6.60;3.03;;;;;;;27.21;44.01;100821.91;6121604;23;20330;-45
2022/06/23 00:04:22;;;;;;;5.32;2.58;;;;;;;27.19;44.08;100833.31;6121240;23;20039;-42
2022/06/23 00:07:00;;;;;;;5.00;2.50;;;;;;;27.24;43.99;100837.69;6122857;23;20010;-43
2022/06/23 00:09:37;;;;;;;3.88;2.65;;;;;;;27.29;43.92;100840.34;6096891;23;20092;-42
2022/06/23 00:12:35;;;;;;;5.40;2.55;;;;;;;27.24;44.09;100831.56;6123770;23;20002;-48
2022/06/23 00:15:04;;;;;;;6.57;2.50;;;;;;;27.23;44.15;100833.28;6103596;23;20333;-43
2022/06/23 00:17:36;;;;;;;5.80;2.60;;;;;;;27.20;43.78;100827.19;6122988;23;20009;-42
2022/06/23 00:20:07;;;;;;;6.05;2.80;;;;;;;27.16;44.10;100821.06;6123202;23;20013;-44
2022/06/23 00:22:36;;;;;;;5.75;2.78;;;;;;;27.20;44.15;100822.81;6122956;23;20069;-42
2022/06/23 00:25:06;;;;;;;4.88;2.60;;;;;;;27.09;44.11;100816.66;6098128;23;20010;-43
2022/06/23 00:27:40;;;;;;;5.07;3.38;;;;;;;27.19;44.17;100828.06;6123032;23;20006;-48
2022/06/23 00:30:20;;;;;;;4.43;2.80;;;;;;;27.13;43.87;100827.22;6122573;23;20033;-47
2022/06/23 00:32:48;;;;;;;4.45;2.65;;;;;;;27.17;44.21;100824.53;6123409;23;20025;-42
2022/06/23 00:35:19;;;;;;;6.38;2.60;;;;;;;27.17;43.89;100822.81;6096556;23;20085;-42
2022/06/23 00:37:51;;;;;;;6.20;2.88;;;;;;;27.17;44.00;100827.19;6123203;23;20059;-43
2022/06/23 00:40:22;;;;;;;4.20;2.60;;;;;;;27.17;44.02;100821.91;6123022;23;20071;-48
2022/06/23 00:42:58;;;;;;;6.20;2.95;;;;;;;27.16;44.18;100828.94;6122751;23;20006;-44
2022/06/23 00:45:50;;;;;;;5.90;2.40;;;;;;;27.13;44.12;100824.56;6097421;23;20010;-50
2022/06/23 00:48:24;;;;;;;4.00;2.42;;;;;;;27.19;43.76;100822.78;6133467;23;20006;-44
2022/06/23 00:50:59;;;;;;;6.87;2.97;;;;;;;27.11;44.12;100821.06;6096851;23;20010;-50
2022/06/23 00:53:44;;;;;;;5.57;2.45;;;;;;;27.09;44.15;100832.47;6096970;23;20014;-43
2022/06/23 00:56:34;;;;;;;6.35;3.08;;;;;;;26.92;44.23;100803.56;6096991;23;20429;-42
2022/06/23 00:59:07;;;;;;;4.13;3.03;;;;;;;26.90;44.47;100829.00;6135099;23;20052;-42
2022/06/23 01:01:42;;;;;;;6.40;2.70;;;;;;;27.01;44.42;100824.59;6096923;23;20307;-44
2022/06/23 01:04:21;;;;;;;7.32;2.67;;;;;;;26.93;44.52;100821.09;6097555;23;20028;-42
2022/06/23 01:06:54;;;;;;;5.65;2.60;;;;;;;26.96;44.47;100813.22;6096798;23;20016;-44
2022/06/23 01:09:48;;;;;;;8.13;2.90;;;;;;;27.03;43.93;100809.66;6122405;23;20082;-43
2022/06/23 01:12:20;;;;;;;8.73;2.60;;;;;;;27.10;44.24;100821.06;6097724;23;20013;-42
2022/06/23 01:15:11;;;;;;;4.95;2.83;;;;;;;27.08;43.94;100817.53;6122769;23;20010;-43
2022/06/23 01:17:47;;;;;;;6.50;2.95;;;;;;;27.02;44.14;100815.81;6135842;23;20006;-43
2022/06/23 01:20:35;;;;;;;6.45;2.60;;;;;;;27.02;44.27;100825.47;6097135;23;20068;-42
2022/06/23 01:23:17;;;;;;;4.32;2.35;;;;;;;27.07;44.07;100819.31;6121223;23;20369;-42
2022/06/23 01:26:01;;;;;;;4.40;2.30;;;;;;;27.00;44.15;100814.94;6097419;23;20025;-49
2022/06/23 01:28:37;;;;;;;7.20;2.47;;;;;;;27.06;43.86;100822.81;6073070;23;20006;-42
2022/06/23 01:31:06;;;;;;;5.20;2.72;;;;;;;27.10;43.83;100823.69;6096759;23;20025;-50
2022/06/23 01:33:59;;;;;;;5.15;2.63;;;;;;;27.03;44.11;100817.56;6097170;23;20089;-44
2022/06/23 01:36:48;;;;;;;4.22;2.47;;;;;;;27.05;43.95;100823.69;6121591;23;20011;-42
2022/06/23 01:39:41;;;;;;;3.85;2.80;;;;;;;27.07;44.07;100821.06;6132613;23;20009;-43
2022/06/23 01:42:47;;;;;;;6.10;2.50;;;;;;;27.08;43.93;100826.34;6132578;23;20010;-46
2022/06/23 01:45:38;;;;;;;4.82;2.88;;;;;;;27.08;43.85;100826.34;6112946;23;20002;-42
2022/06/23 01:48:12;;;;;;;7.72;2.65;;;;;;;27.07;44.02;100824.59;6133204;23;20022;-42
2022/06/23 01:50:42;;;;;;;3.53;2.60;;;;;;;27.06;44.07;100819.31;6122655;23;20034;-46
2022/06/23 01:53:21;;;;;;;5.65;2.45;;;;;;;26.98;43.93;100811.41;6097282;23;20006;-42
2022/06/23 01:55:59;;;;;;;7.05;2.60;;;;;;;27.02;43.96;100813.16;6096628;23;20010;-42
2022/06/23 01:58:32;;;;;;;4.68;2.40;;;;;;;26.99;43.86;100815.81;6122692;23;20061;-42
2022/06/23 02:01:02;;;;;;;4.80;2.42;;;;;;;27.01;44.18;100821.94;6096624;23;20013;-46
2022/06/23 02:03:42;;;;;;;5.93;2.67;;;;;;;27.02;43.93;100822.84;6120536;23;20055;-49
2022/06/23 02:06:21;;;;;;;3.58;2.05;;;;;;;27.06;43.88;100816.66;6122047;23;20350;-42
2022/06/23 02:09:12;;;;;;;7.18;2.60;;;;;;;27.02;43.87;100815.81;6122241;23;20013;-46
2022/06/23 02:11:45;;;;;;;4.35;2.38;;;;;;;27.05;43.94;100812.31;6134226;23;20010;-52
2022/06/23 02:14:23;;;;;;;3.90;1.98;;;;;;;27.05;43.84;100814.94;6097044;23;20052;-44
2022/06/23 02:17:26;;;;;;;4.50;2.67;;;;;;;26.98;44.08;100807.06;6120778;23;20002;-43
2022/06/23 02:19:56;;;;;;;6.00;2.58;;;;;;;27.03;43.74;100804.41;6123016;23;20006;-43
2022/06/23 02:22:42;;;;;;;5.93;2.47;;;;;;;26.91;44.26;100786.00;6122221;23;20337;-43
2022/06/23 02:25:16;;;;;;;5.10;2.40;;;;;;;26.99;43.81;100807.91;6122621;23;20002;-43
2022/06/23 02:27:52;;;;;;;3.15;2.58;;;;;;;26.97;43.88;100794.75;6122778;23;20002;-44
2022/06/23 02:30:31;;;;;;;3.75;2.13;;;;;;;26.99;43.93;100792.13;6096696;23;20006;-44
2022/06/23 02:33:08;;;;;;;3.90;2.10;;;;;;;26.95;43.82;100787.75;6096894;23;20006;-43
2022/06/23 02:35:57;;;;;;;4.97;2.13;;;;;;;26.95;43.86;100785.13;6122080;23;20002;-42
2022/06/23 02:38:27;;;;;;;4.05;2.20;;;;;;;27.03;43.85;100785.09;6156574;23;20009;-51
2022/06/23 02:41:07;;;;;;;3.03;2.22;;;;;;;26.97;44.10;100786.00;6122078;23;20025;-42
2022/06/23 02:43:40;;;;;;;4.97;2.45;;;;;;;26.97;44.02;100781.59;6096316;23;20446;-44
2022/06/23 02:46:32;;;;;;;3.85;2.40;;;;;;;26.94;43.86;100783.38;6122222;23;20009;-47
2022/06/23 02:49:19;;;;;;;4.45;2.72;;;;;;;26.94;43.91;100780.75;6134869;23;20006;-53
2022/06/23 02:52:07;;;;;;;4.70;2.47;;;;;;;26.96;43.80;100781.63;6157934;23;20080;-47
2022/06/23 02:55:04;;;;;;;6.03;2.50;;;;;;;26.93;44.04;100771.09;6135974;23;20437;-45
2022/06/23 02:58:03;;;;;;;4.18;2.60;;;;;;;26.96;44.09;100778.97;6130357;23;20013;-44
2022/06/23 03:00:41;;;;;;;5.35;2.10;;;;;;;26.97;43.84;100773.69;6126785;23;20344;-43
2022/06/23 03:03:19;;;;;;;5.75;3.03;;;;;;;26.97;44.01;100772.84;6096666;23;20056;-43
2022/06/23 03:05:58;;;;;;;5.53;2.63;;;;;;;26.94;44.06;100770.22;6121855;23;20010;-43
2022/06/23 03:08:42;;;;;;;4.78;2.40;;;;;;;26.89;43.81;100770.19;6096933;23;20060;-50
2022/06/23 03:11:51;;;;;;;4.32;2.38;;;;;;;26.90;43.92;100774.59;6122233;23;20006;-43
2022/06/23 03:14:14;;;;;;;4.57;2.38;;;;;;;26.90;44.08;100779.00;6121324;23;20033;-46
2022/06/23 03:16:48;;;;;;;2.97;2.10;;;;;;;26.93;43.86;100777.22;6122037;23;20381;-44
2022/06/23 03:19:21;;;;;;;2.88;2.08;;;;;;;26.95;43.99;100777.22;6121356;23;20009;-44
2022/06/23 03:21:55;;;;;;;7.22;2.30;;;;;;;26.90;44.01;100774.59;6121645;23;20081;-43
2022/06/23 03:24:30;;;;;;;6.15;2.47;;;;;;;26.88;44.09;100778.13;6120534;23;20410;-45
2022/06/23 03:27:03;;;;;;;4.10;2.75;;;;;;;26.76;44.24;100766.72;6121788;23;20037;-45
2022/06/23 03:29:37;;;;;;;4.45;2.70;;;;;;;26.87;44.20;100785.16;6122532;23;20047;-44
2022/06/23 03:32:12;;;;;;;2.90;1.80;;;;;;;26.84;44.15;100791.28;6121910;23;20422;-43
2022/06/23 03:35:03;;;;;;;3.72;2.40;;;;;;;26.84;44.10;100786.00;6096491;23;20065;-43
2022/06/23 03:37:41;;;;;;;4.65;2.40;;;;;;;26.89;44.02;100787.75;6110950;23;20333;-53
2022/06/23 03:43:35;;;;;;;3.60;2.20;;;;;;;26.90;43.76;100789.53;6160393;23;20014;-45
2022/06/23 03:46:25;;;;;;;3.58;2.38;;;;;;;26.88;43.92;100780.75;6120985;23;20009;-46
2022/06/23 03:49:02;;;;;;;3.42;2.10;;;;;;;26.88;44.03;100784.28;6124927;23;20357;-52
2022/06/23 03:51:35;;;;;;;3.85;2.40;;;;;;;26.90;43.91;100790.38;6095816;23;20160;-43
2022/06/23 03:54:07;;;;;;;4.53;2.40;;;;;;;26.86;43.99;100778.13;6120360;23;20069;-46
2022/06/23 03:56:45;;;;;;;5.75;2.35;;;;;;;26.84;44.00;100780.75;6121444;23;20010;-44
2022/06/23 03:59:21;;;;;;;4.07;2.50;;;;;;;26.88;43.88;100786.00;6120034;23;20013;-50
2022/06/23 04:01:52;;;;;;;4.82;2.45;;;;;;;26.88;43.85;100784.28;6121621;23;20010;-45
2022/06/23 04:04:23;;;;;;;5.07;2.22;;;;;;;26.88;43.94;100778.13;6121576;23;20448;-43
2022/06/23 04:06:53;;;;;;;3.63;2.25;;;;;;;26.87;44.08;100784.25;6121123;23;20029;-42
2022/06/23 04:09:32;;;;;;;5.07;3.20;;;;;;;26.83;44.11;100767.59;6121570;23;20445;-44
2022/06/23 04:12:20;;;;;;;6.50;2.15;;;;;;;26.79;44.18;100766.75;6123494;23;20040;-52
2022/06/23 04:14:54;;;;;;;2.70;2.00;;;;;;;26.84;43.98;100772.84;6121283;23;20009;-44
2022/06/23 04:17:41;;;;;;;9.32;2.70;;;;;;;26.80;44.17;100775.50;6097178;23;20310;-44
2022/06/23 04:20:10;;;;;;;5.65;2.05;;;;;;;26.83;43.96;100779.00;6122304;23;20038;-42
2022/06/23 04:22:53;;;;;;;2.92;2.00;;;;;;;26.81;43.93;100772.84;6122744;23;20006;-43
2022/06/23 04:25:24;;;;;;;6.53;2.67;;;;;;;26.84;44.01;100766.72;6099762;23;20002;-42
2022/06/23 04:27:59;;;;;;;5.15;2.25;;;;;;;26.79;43.92;100761.47;6122964;23;20025;-43
2022/06/23 04:30:27;;;;;;;;;;;;;;;26.78;44.12;100757.06;6097775;23;20008;-44
2022/06/23 04:32:57;;;;;;;4.38;2.63;;;;;;;26.81;44.12;100764.97;6122922;23;19963;-42
2022/06/23 04:35:31;;;;;;;3.85;2.20;;;;;;;26.79;44.31;100765.81;6121282;23;20006;-49
2022/06/23 04:38:22;;;;;;;5.13;2.25;;;;;;;26.71;44.40;100773.72;6122798;23;20013;-45
2022/06/23 04:40:57;;;;;;;3.47;2.05;;;;;;;26.78;44.01;100762.31;6156305;22;20068;-43
2022/06/23 04:43:36;;;;;;;4.43;2.28;;;;;;;26.73;44.08;100763.19;6122578;23;20437;-42
2022/06/23 04:46:17;;;;;;;3.92;2.28;;;;;;;26.75;44.17;100764.97;6122948;23;20010;-44
2022/06/23 04:48:59;;;;;;;7.15;2.17;;;;;;;26.78;44.06;100761.44;6097836;23;20507;-46
2022/06/23 04:51:29;;;;;;;3.17;2.20;;;;;;;26.78;44.08;100764.97;6097481;23;20483;-41
2022/06/23 04:54:03;;;;;;;5.68;2.33;;;;;;;26.78;44.12;100759.69;6122756;23;19998;-43
2022/06/23 04:56:37;;;;;;;3.42;2.38;;;;;;;26.76;44.23;100760.56;6122981;23;20113;-47
2022/06/23 04:59:39;;;;;;;3.28;2.22;;;;;;;26.78;44.37;100759.69;6097083;23;20006;-44
2022/06/23 05:02:30;;;;;;;5.05;2.25;;;;;;;26.86;44.05;100766.72;6136628;23;20085;-42
2022/06/23 05:05:01;;;;;;;3.88;2.40;;;;;;;26.90;43.95;100768.47;6130455;23;20437;-42
2022/06/23 05:07:33;;;;;;;3.80;2.42;;;;;;;26.90;43.97;100764.06;6122353;23;20006;-44
2022/06/23 05:10:06;;;;;;;7.40;2.92;;;;;;;26.89;43.88;100767.56;6122738;23;20116;-41
2022/06/23 05:12:38;;;;;;;4.05;2.17;;;;;;;26.93;43.97;100766.69;6122703;23;19998;-49
2022/06/23 05:15:16;;;;;;;5.78;2.40;;;;;;;26.91;44.01;100765.81;6122704;23;20002;-42
2022/06/23 05:18:06;;;;;;;5.95;1.92;;;;;;;27.03;43.76;100759.66;6122271;23;20002;-47
2022/06/23 05:20:57;;;;;;;4.65;2.22;;;;;;;27.00;43.77;100764.91;6122167;23;20002;-41
2022/06/23 05:23:32;;;;;;;4.40;1.70;;;;;;;27.04;43.64;100766.66;6132288;23;20010;-41
2022/06/23 05:26:07;;;;;;;7.25;2.55;;;;;;;27.07;43.69;100766.66;6096736;23;20055;-41
2022/06/23 05:28:37;;;;;;;6.35;2.17;;;;;;;27.00;43.83;100770.19;6121141;23;20081;-47
2022/06/23 05:31:11;;;;;;;3.97;2.25;;;;;;;26.98;43.78;100761.41;6122147;23;20006;-42
2022/06/23 05:33:45;;;;;;;7.43;2.00;;;;;;;26.99;43.87;100765.78;6097514;23;20002;-42
2022/06/23 05:36:22;;;;;;;5.00;2.28;;;;;;;26.99;43.71;100764.06;6096233;23;20014;-43
2022/06/23 05:38:55;;;;;;;3.58;1.42;;;;;;;27.08;43.56;100768.41;6121841;23;20010;-44
2022/06/23 05:41:28;;;;;;;4.05;2.10;;;;;;;27.04;43.70;100766.66;6120560;23;20502;-43
2022/06/23 05:43:58;;;;;;;7.90;2.13;;;;;;;26.98;43.94;100764.94;6120912;23;20095;-45
2022/06/23 05:46:29;;;;;;;7.38;2.00;;;;;;;27.00;43.65;100764.91;6096698;23;20006;-42
2022/06/23 05:49:00;;;;;;;3.70;1.80;;;;;;;27.01;43.79;100773.69;6122121;23;20040;-48
2022/06/23 05:51:42;;;;;;;4.47;1.70;;;;;;;27.02;43.64;100767.56;6120866;23;20044;-43
2022/06/23 05:54:19;;;;;;;4.53;1.63;;;;;;;26.87;43.52;100742.13;6097438;23;20380;-44
2022/06/23 05:56:53;;;;;;;2.80;1.90;;;;;;;27.04;43.66;100771.06;6122090;23;20018;-43
2022/06/23 06:00:00;;;;;;;8.90;2.40;;;;;;;27.03;43.44;100771.94;6122102;23;20006;-46
2022/06/23 06:02:38;;;;;;;6.38;2.05;;;;;;;27.06;43.59;100769.28;6115457;23;20016;-41
2022/06/23 06:05:09;;;;;;;3.55;1.63;;;;;;;27.05;43.76;100771.03;6122424;23;20006;-43
2022/06/23 06:07:40;;;;;;;2.72;1.70;;;;;;;27.06;43.48;100774.53;6120713;23;20184;-42
2022/06/23 06:10:16;;;;;;;9.77;2.08;;;;;;;27.07;43.80;100768.41;6120919;23;20094;-42
2022/06/23 06:12:45;;;;;;;6.03;2.10;;;;;;;27.10;43.32;100777.19;6120719;23;20056;-42
2022/06/23 06:15:20;;;;;;;3.97;2.15;;;;;;;27.18;43.22;100771.91;6120710;23;20006;-44
2022/06/23 06:17:49;;;;;;;3.20;1.55;;;;;;;27.20;43.00;100769.25;6122700;23;20010;-44
2022/06/23 06:20:20;;;;;;;4.30;2.03;;;;;;;27.28;42.92;100770.09;6120663;23;20024;-43
2022/06/23 06:22:55;;;;;;;2.70;1.75;;;;;;;27.18;43.42;100774.53;6120943;23;20017;-43
